sensor_id;sensor_type;location;lat;lon;timestamp;temperature;humidity
18948;DHT22;9607;51.600;7.558;2022-10-16T00:00:47;13.00;99.90
18948;DHT22;9607;51.600;7.558;2022-10-16T00:03:15;13.00;99.90
18948;DHT22;9607;51.600;7.558;2022-10-16T00:05:43;13.00;99.90
18948;DHT22;9607;51.600;7.558;2022-10-16T00:08:12;13.00;99.90
18948;DHT22;9607;51.600;7.558;2022-10-16T00:10:39;13.00;99.90
18948;DHT22;9607;51.600;7.558;2022-10-16T00:13:07;13.00;99.90
18948;DHT22;9607;51.600;7.558;2022-10-16T00:15:35;13.00;99.90
18948;DHT22;9607;51.600;7.558;2022-10-16T00:18:03;13.00;99.90
18948;DHT22;9607;51.600;7.558;2022-10-16T00:20:30;13.00;99.90
18948;DHT22;9607;51.600;7.558;2022-10-16T00:22:59;12.90;99.90
18948;DHT22;9607;51.600;7.558;2022-10-16T00:25:27;12.90;99.90
18948;DHT22;9607;51.600;7.558;2022-10-16T00:27:54;12.90;99.90
18948;DHT22;9607;51.600;7.558;2022-10-16T00:30:21;12.80;99.90
18948;DHT22;9607;51.600;7.558;2022-10-16T00:32:49;12.80;99.90
18948;DHT22;9607;51.600;7.558;2022-10-16T00:35:16;12.80;99.90
18948;DHT22;9607;51.600;7.558;2022-10-16T00:37:43;12.80;99.90
18948;DHT22;9607;51.600;7.558;2022-10-16T00:40:10;12.80;99.90
18948;DHT22;9607;51.600;7.558;2022-10-16T00:42:39;12.70;99.90
18948;DHT22;9607;51.600;7.558;2022-10-16T00:45:08;12.70;99.90
18948;DHT22;9607;51.600;7.558;2022-10-16T00:47:37;12.70;99.90
18948;DHT22;9607;51.600;7.558;2022-10-16T00:50:08;12.70;99.90
18948;DHT22;9607;51.600;7.558;2022-10-16T00:52:36;12.70;99.90
18948;DHT22;9607;51.600;7.558;2022-10-16T00:55:06;12.70;99.90
18948;DHT22;9607;51.600;7.558;2022-10-16T00:57:35;12.60;99.90
18948;DHT22;9607;51.600;7.558;2022-10-16T01:00:06;12.60;99.90
18948;DHT22;9607;51.600;7.558;2022-10-16T01:02:33;12.60;99.90
18948;DHT22;9607;51.600;7.558;2022-10-16T01:05:01;12.60;99.90
18948;DHT22;9607;51.600;7.558;2022-10-16T01:07:36;12.60;99.90
18948;DHT22;9607;51.600;7.558;2022-10-16T01:10:17;12.70;99.90
18948;DHT22;9607;51.600;7.558;2022-10-16T01:12:49;12.70;99.90
18948;DHT22;9607;51.600;7.558;2022-10-16T01:15:25;12.70;99.90
18948;DHT22;9607;51.600;7.558;2022-10-16T01:17:58;12.70;99.90
18948;DHT22;9607;51.600;7.558;2022-10-16T01:20:30;12.70;99.90
18948;DHT22;9607;51.600;7.558;2022-10-16T01:23:15;12.70;99.90
18948;DHT22;9607;51.600;7.558;2022-10-16T01:26:20;12.70;99.90
18948;DHT22;9607;51.600;7.558;2022-10-16T01:28:55;12.70;99.90
18948;DHT22;9607;51.600;7.558;2022-10-16T01:31:27;12.70;99.90
18948;DHT22;9607;51.600;7.558;2022-10-16T01:33:59;12.70;99.90
18948;DHT22;9607;51.600;7.558;2022-10-16T01:36:33;12.60;99.90
18948;DHT22;9607;51.600;7.558;2022-10-16T01:39:02;12.60;99.90
18948;DHT22;9607;51.600;7.558;2022-10-16T01:41:33;12.60;99.90
18948;DHT22;9607;51.600;7.558;2022-10-16T01:44:05;12.60;99.90
18948;DHT22;9607;51.600;7.558;2022-10-16T01:46:35;12.50;99.90
18948;DHT22;9607;51.600;7.558;2022-10-16T01:49:03;12.50;99.90
18948;DHT22;9607;51.600;7.558;2022-10-16T01:51:30;12.50;99.90
18948;DHT22;9607;51.600;7.558;2022-10-16T01:54:00;12.50;99.90
18948;DHT22;9607;51.600;7.558;2022-10-16T01:56:28;12.40;99.90
18948;DHT22;9607;51.600;7.558;2022-10-16T01:58:58;12.40;99.90
18948;DHT22;9607;51.600;7.558;2022-10-16T02:01:31;12.40;99.90
18948;DHT22;9607;51.600;7.558;2022-10-16T02:04:03;12.30;99.90
18948;DHT22;9607;51.600;7.558;2022-10-16T02:06:32;12.30;99.90
18948;DHT22;9607;51.600;7.558;2022-10-16T02:09:00;12.30;99.90
18948;DHT22;9607;51.600;7.558;2022-10-16T02:11:27;12.30;99.90
18948;DHT22;9607;51.600;7.558;2022-10-16T02:13:57;12.30;99.90
18948;DHT22;9607;51.600;7.558;2022-10-16T02:16:34;12.30;99.90
18948;DHT22;9607;51.600;7.558;2022-10-16T02:19:02;12.30;99.90
18948;DHT22;9607;51.600;7.558;2022-10-16T02:21:33;12.30;99.90
18948;DHT22;9607;51.600;7.558;2022-10-16T02:24:05;12.30;99.90
18948;DHT22;9607;51.600;7.558;2022-10-16T02:26:37;12.20;99.90
18948;DHT22;9607;51.600;7.558;2022-10-16T02:29:11;12.20;99.90
18948;DHT22;9607;51.600;7.558;2022-10-16T02:31:43;12.20;99.90
18948;DHT22;9607;51.600;7.558;2022-10-16T02:34:13;12.20;99.90
18948;DHT22;9607;51.600;7.558;2022-10-16T02:36:41;12.20;99.90
18948;DHT22;9607;51.600;7.558;2022-10-16T02:39:09;12.30;99.90
18948;DHT22;9607;51.600;7.558;2022-10-16T02:41:37;12.30;99.90
18948;DHT22;9607;51.600;7.558;2022-10-16T02:44:04;12.40;99.90
18948;DHT22;9607;51.600;7.558;2022-10-16T02:46:31;12.50;99.90
18948;DHT22;9607;51.600;7.558;2022-10-16T02:49:00;12.50;99.90
18948;DHT22;9607;51.600;7.558;2022-10-16T02:51:27;12.60;99.90
18948;DHT22;9607;51.600;7.558;2022-10-16T02:53:54;12.60;99.90
18948;DHT22;9607;51.600;7.558;2022-10-16T02:56:21;12.60;99.90
18948;DHT22;9607;51.600;7.558;2022-10-16T02:58:47;12.60;99.90
18948;DHT22;9607;51.600;7.558;2022-10-16T03:01:14;12.70;99.90
18948;DHT22;9607;51.600;7.558;2022-10-16T03:03:42;12.70;99.90
18948;DHT22;9607;51.600;7.558;2022-10-16T03:06:10;12.80;99.90
18948;DHT22;9607;51.600;7.558;2022-10-16T03:08:37;12.80;99.90
18948;DHT22;9607;51.600;7.558;2022-10-16T03:11:04;12.90;99.90
18948;DHT22;9607;51.600;7.558;2022-10-16T03:13:31;12.90;99.90
18948;DHT22;9607;51.600;7.558;2022-10-16T03:15:58;13.00;99.90
18948;DHT22;9607;51.600;7.558;2022-10-16T03:18:25;13.00;99.90
18948;DHT22;9607;51.600;7.558;2022-10-16T03:20:52;13.10;99.90
18948;DHT22;9607;51.600;7.558;2022-10-16T03:23:20;13.10;99.90
18948;DHT22;9607;51.600;7.558;2022-10-16T03:25:47;13.10;99.90
18948;DHT22;9607;51.600;7.558;2022-10-16T03:28:14;13.10;99.90
18948;DHT22;9607;51.600;7.558;2022-10-16T03:30:41;13.20;99.90
18948;DHT22;9607;51.600;7.558;2022-10-16T03:33:09;13.20;99.90
18948;DHT22;9607;51.600;7.558;2022-10-16T03:35:36;13.30;99.90
18948;DHT22;9607;51.600;7.558;2022-10-16T03:38:02;13.30;99.90
18948;DHT22;9607;51.600;7.558;2022-10-16T03:40:31;13.30;99.90
18948;DHT22;9607;51.600;7.558;2022-10-16T03:42:58;13.30;99.90
18948;DHT22;9607;51.600;7.558;2022-10-16T03:45:25;13.20;99.90
18948;DHT22;9607;51.600;7.558;2022-10-16T03:47:52;13.20;99.90
18948;DHT22;9607;51.600;7.558;2022-10-16T03:50:19;13.10;99.90
18948;DHT22;9607;51.600;7.558;2022-10-16T03:52:46;13.10;99.90
18948;DHT22;9607;51.600;7.558;2022-10-16T03:55:13;13.10;99.90
18948;DHT22;9607;51.600;7.558;2022-10-16T03:57:41;13.00;99.90
18948;DHT22;9607;51.600;7.558;2022-10-16T04:00:09;13.00;99.90
18948;DHT22;9607;51.600;7.558;2022-10-16T04:02:37;12.90;99.90
18948;DHT22;9607;51.600;7.558;2022-10-16T04:05:04;12.70;99.90
18948;DHT22;9607;51.600;7.558;2022-10-16T04:07:31;12.80;99.90
18948;DHT22;9607;51.600;7.558;2022-10-16T04:09:58;12.70;99.90
18948;DHT22;9607;51.600;7.558;2022-10-16T04:12:26;12.60;99.90
18948;DHT22;9607;51.600;7.558;2022-10-16T04:14:54;12.50;99.90
18948;DHT22;9607;51.600;7.558;2022-10-16T04:17:21;12.50;99.90
18948;DHT22;9607;51.600;7.558;2022-10-16T04:19:48;12.40;99.90
18948;DHT22;9607;51.600;7.558;2022-10-16T04:22:15;12.40;99.90
18948;DHT22;9607;51.600;7.558;2022-10-16T04:24:42;12.30;99.90
18948;DHT22;9607;51.600;7.558;2022-10-16T04:27:09;12.30;99.90
18948;DHT22;9607;51.600;7.558;2022-10-16T04:29:36;12.30;99.90
18948;DHT22;9607;51.600;7.558;2022-10-16T04:32:04;12.30;99.90
18948;DHT22;9607;51.600;7.558;2022-10-16T04:34:31;12.30;99.90
18948;DHT22;9607;51.600;7.558;2022-10-16T04:36:58;12.30;99.90
18948;DHT22;9607;51.600;7.558;2022-10-16T04:39:25;12.30;99.90
18948;DHT22;9607;51.600;7.558;2022-10-16T04:41:51;12.30;99.90
18948;DHT22;9607;51.600;7.558;2022-10-16T04:44:18;12.30;99.90
18948;DHT22;9607;51.600;7.558;2022-10-16T04:46:45;12.30;99.90
18948;DHT22;9607;51.600;7.558;2022-10-16T04:49:13;12.30;99.90
18948;DHT22;9607;51.600;7.558;2022-10-16T04:51:40;12.20;99.90
18948;DHT22;9607;51.600;7.558;2022-10-16T04:54:08;12.20;99.90
18948;DHT22;9607;51.600;7.558;2022-10-16T04:56:35;12.20;99.90
18948;DHT22;9607;51.600;7.558;2022-10-16T04:59:08;12.20;99.90
18948;DHT22;9607;51.600;7.558;2022-10-16T05:01:35;12.10;99.90
18948;DHT22;9607;51.600;7.558;2022-10-16T05:04:02;12.10;99.90
18948;DHT22;9607;51.600;7.558;2022-10-16T05:06:31;12.10;99.90
18948;DHT22;9607;51.600;7.558;2022-10-16T05:08:58;12.10;99.90
18948;DHT22;9607;51.600;7.558;2022-10-16T05:11:25;12.10;99.90
18948;DHT22;9607;51.600;7.558;2022-10-16T05:13:52;12.10;99.90
18948;DHT22;9607;51.600;7.558;2022-10-16T05:16:19;12.10;99.90
18948;DHT22;9607;51.600;7.558;2022-10-16T05:18:45;12.10;99.90
18948;DHT22;9607;51.600;7.558;2022-10-16T05:21:13;12.10;99.90
18948;DHT22;9607;51.600;7.558;2022-10-16T05:23:41;12.10;99.90
18948;DHT22;9607;51.600;7.558;2022-10-16T05:26:08;12.20;99.90
18948;DHT22;9607;51.600;7.558;2022-10-16T05:28:35;12.20;99.90
18948;DHT22;9607;51.600;7.558;2022-10-16T05:31:04;12.30;99.90
18948;DHT22;9607;51.600;7.558;2022-10-16T05:33:32;12.30;99.90
18948;DHT22;9607;51.600;7.558;2022-10-16T05:36:01;12.40;99.90
18948;DHT22;9607;51.600;7.558;2022-10-16T05:38:28;12.40;99.90
18948;DHT22;9607;51.600;7.558;2022-10-16T05:40:57;12.40;99.90
18948;DHT22;9607;51.600;7.558;2022-10-16T05:43:23;12.40;99.90
18948;DHT22;9607;51.600;7.558;2022-10-16T05:45:55;12.40;99.90
18948;DHT22;9607;51.600;7.558;2022-10-16T05:48:22;12.40;99.90
18948;DHT22;9607;51.600;7.558;2022-10-16T05:50:55;12.40;99.90
18948;DHT22;9607;51.600;7.558;2022-10-16T05:53:22;12.40;99.90
18948;DHT22;9607;51.600;7.558;2022-10-16T05:55:54;12.40;99.90
18948;DHT22;9607;51.600;7.558;2022-10-16T05:58:23;12.40;99.90
18948;DHT22;9607;51.600;7.558;2022-10-16T06:00:54;12.40;99.90
18948;DHT22;9607;51.600;7.558;2022-10-16T06:03:21;12.40;99.90
18948;DHT22;9607;51.600;7.558;2022-10-16T06:05:48;12.40;99.90
18948;DHT22;9607;51.600;7.558;2022-10-16T06:08:15;12.50;99.90
18948;DHT22;9607;51.600;7.558;2022-10-16T06:10:43;12.50;99.90
18948;DHT22;9607;51.600;7.558;2022-10-16T06:13:10;12.50;99.90
18948;DHT22;9607;51.600;7.558;2022-10-16T06:15:39;12.50;99.90
18948;DHT22;9607;51.600;7.558;2022-10-16T06:18:07;12.50;99.90
18948;DHT22;9607;51.600;7.558;2022-10-16T06:20:34;12.60;99.90
18948;DHT22;9607;51.600;7.558;2022-10-16T06:23:01;12.60;99.90
18948;DHT22;9607;51.600;7.558;2022-10-16T06:25:29;12.60;99.90
18948;DHT22;9607;51.600;7.558;2022-10-16T06:27:56;12.60;99.90
18948;DHT22;9607;51.600;7.558;2022-10-16T06:30:23;12.60;99.90
18948;DHT22;9607;51.600;7.558;2022-10-16T06:32:52;12.60;99.90
18948;DHT22;9607;51.600;7.558;2022-10-16T06:35:19;12.60;99.90
18948;DHT22;9607;51.600;7.558;2022-10-16T06:37:46;12.70;99.90
18948;DHT22;9607;51.600;7.558;2022-10-16T06:40:13;12.70;99.90
18948;DHT22;9607;51.600;7.558;2022-10-16T06:42:40;12.80;99.90
18948;DHT22;9607;51.600;7.558;2022-10-16T06:45:08;12.80;99.90
18948;DHT22;9607;51.600;7.558;2022-10-16T06:47:35;12.90;99.90
18948;DHT22;9607;51.600;7.558;2022-10-16T06:50:04;12.90;99.90
18948;DHT22;9607;51.600;7.558;2022-10-16T06:52:32;12.90;99.90
18948;DHT22;9607;51.600;7.558;2022-10-16T06:54:59;13.00;99.90
18948;DHT22;9607;51.600;7.558;2022-10-16T06:57:26;13.00;99.90
18948;DHT22;9607;51.600;7.558;2022-10-16T06:59:53;13.10;99.90
18948;DHT22;9607;51.600;7.558;2022-10-16T07:02:19;13.10;99.90
18948;DHT22;9607;51.600;7.558;2022-10-16T07:04:46;13.20;99.90
18948;DHT22;9607;51.600;7.558;2022-10-16T07:07:15;13.20;99.90
18948;DHT22;9607;51.600;7.558;2022-10-16T07:09:41;13.30;99.90
18948;DHT22;9607;51.600;7.558;2022-10-16T07:12:08;13.30;99.90
18948;DHT22;9607;51.600;7.558;2022-10-16T07:14:35;13.30;99.90
18948;DHT22;9607;51.600;7.558;2022-10-16T07:17:02;13.30;99.90
18948;DHT22;9607;51.600;7.558;2022-10-16T07:19:29;13.30;99.90
18948;DHT22;9607;51.600;7.558;2022-10-16T07:21:56;13.30;99.90
18948;DHT22;9607;51.600;7.558;2022-10-16T07:24:24;13.30;99.90
18948;DHT22;9607;51.600;7.558;2022-10-16T07:26:52;13.30;99.90
18948;DHT22;9607;51.600;7.558;2022-10-16T07:29:20;13.40;99.90
18948;DHT22;9607;51.600;7.558;2022-10-16T07:31:48;13.50;99.90
18948;DHT22;9607;51.600;7.558;2022-10-16T07:34:16;13.50;99.90
18948;DHT22;9607;51.600;7.558;2022-10-16T07:36:44;13.50;99.90
18948;DHT22;9607;51.600;7.558;2022-10-16T07:39:11;13.50;99.90
18948;DHT22;9607;51.600;7.558;2022-10-16T07:41:39;13.60;99.90
18948;DHT22;9607;51.600;7.558;2022-10-16T07:44:06;13.60;99.90
18948;DHT22;9607;51.600;7.558;2022-10-16T07:46:33;13.60;99.90
18948;DHT22;9607;51.600;7.558;2022-10-16T07:49:01;13.60;99.90
18948;DHT22;9607;51.600;7.558;2022-10-16T07:51:28;13.50;99.90
18948;DHT22;9607;51.600;7.558;2022-10-16T07:53:55;13.50;99.90
18948;DHT22;9607;51.600;7.558;2022-10-16T07:56:22;13.60;99.90
18948;DHT22;9607;51.600;7.558;2022-10-16T07:58:51;13.60;99.90
18948;DHT22;9607;51.600;7.558;2022-10-16T08:01:19;13.60;99.90
18948;DHT22;9607;51.600;7.558;2022-10-16T08:03:48;13.70;99.90
18948;DHT22;9607;51.600;7.558;2022-10-16T08:06:15;13.70;99.90
18948;DHT22;9607;51.600;7.558;2022-10-16T08:08:42;13.70;99.90
18948;DHT22;9607;51.600;7.558;2022-10-16T08:11:09;13.70;99.90
18948;DHT22;9607;51.600;7.558;2022-10-16T08:13:36;13.80;99.90
18948;DHT22;9607;51.600;7.558;2022-10-16T08:16:05;13.90;99.90
18948;DHT22;9607;51.600;7.558;2022-10-16T08:18:34;13.90;99.90
18948;DHT22;9607;51.600;7.558;2022-10-16T08:21:02;14.00;99.90
18948;DHT22;9607;51.600;7.558;2022-10-16T08:23:30;14.10;99.90
18948;DHT22;9607;51.600;7.558;2022-10-16T08:26:04;14.20;99.90
18948;DHT22;9607;51.600;7.558;2022-10-16T08:28:31;14.30;99.90
18948;DHT22;9607;51.600;7.558;2022-10-16T08:31:08;14.40;99.90
18948;DHT22;9607;51.600;7.558;2022-10-16T08:33:35;14.40;99.90
18948;DHT22;9607;51.600;7.558;2022-10-16T08:36:03;14.50;99.90
18948;DHT22;9607;51.600;7.558;2022-10-16T08:38:30;14.60;99.90
18948;DHT22;9607;51.600;7.558;2022-10-16T08:41:09;14.70;99.90
18948;DHT22;9607;51.600;7.558;2022-10-16T08:43:51;14.80;99.90
18948;DHT22;9607;51.600;7.558;2022-10-16T08:46:40;14.80;99.90
18948;DHT22;9607;51.600;7.558;2022-10-16T08:49:12;14.90;99.90
18948;DHT22;9607;51.600;7.558;2022-10-16T08:51:40;15.00;99.90
18948;DHT22;9607;51.600;7.558;2022-10-16T08:54:21;15.10;99.90
18948;DHT22;9607;51.600;7.558;2022-10-16T08:56:49;15.10;99.90
18948;DHT22;9607;51.600;7.558;2022-10-16T08:59:16;15.20;99.90
18948;DHT22;9607;51.600;7.558;2022-10-16T09:01:47;15.20;99.90
18948;DHT22;9607;51.600;7.558;2022-10-16T09:04:58;15.30;99.90
18948;DHT22;9607;51.600;7.558;2022-10-16T09:07:32;15.40;99.90
18948;DHT22;9607;51.600;7.558;2022-10-16T09:10:13;15.40;99.90
18948;DHT22;9607;51.600;7.558;2022-10-16T09:12:47;15.50;99.90
18948;DHT22;9607;51.600;7.558;2022-10-16T09:15:23;15.60;99.90
18948;DHT22;9607;51.600;7.558;2022-10-16T09:17:58;15.60;99.90
18948;DHT22;9607;51.600;7.558;2022-10-16T09:20:32;15.70;99.90
18948;DHT22;9607;51.600;7.558;2022-10-16T09:23:12;15.80;99.90
18948;DHT22;9607;51.600;7.558;2022-10-16T09:25:43;15.80;99.90
18948;DHT22;9607;51.600;7.558;2022-10-16T09:28:10;15.90;99.90
18948;DHT22;9607;51.600;7.558;2022-10-16T09:30:37;15.90;99.90
18948;DHT22;9607;51.600;7.558;2022-10-16T09:33:07;16.00;99.90
18948;DHT22;9607;51.600;7.558;2022-10-16T09:35:37;16.00;99.90
18948;DHT22;9607;51.600;7.558;2022-10-16T09:38:06;16.00;99.90
18948;DHT22;9607;51.600;7.558;2022-10-16T09:40:35;16.10;99.90
18948;DHT22;9607;51.600;7.558;2022-10-16T09:43:12;16.10;99.90
18948;DHT22;9607;51.600;7.558;2022-10-16T09:45:43;16.10;99.90
18948;DHT22;9607;51.600;7.558;2022-10-16T09:48:22;16.20;99.90
18948;DHT22;9607;51.600;7.558;2022-10-16T09:50:57;16.20;99.90
18948;DHT22;9607;51.600;7.558;2022-10-16T09:53:37;16.20;99.90
18948;DHT22;9607;51.600;7.558;2022-10-16T09:56:05;16.30;99.90
18948;DHT22;9607;51.600;7.558;2022-10-16T09:58:32;16.30;99.90
18948;DHT22;9607;51.600;7.558;2022-10-16T10:00:59;16.30;99.90
18948;DHT22;9607;51.600;7.558;2022-10-16T10:03:35;16.40;99.90
18948;DHT22;9607;51.600;7.558;2022-10-16T10:06:14;16.50;99.90
18948;DHT22;9607;51.600;7.558;2022-10-16T10:08:51;16.60;99.90
18948;DHT22;9607;51.600;7.558;2022-10-16T10:14:04;16.70;99.90
18948;DHT22;9607;51.600;7.558;2022-10-16T10:16:31;16.80;99.90
18948;DHT22;9607;51.600;7.558;2022-10-16T10:19:00;16.90;99.90
18948;DHT22;9607;51.600;7.558;2022-10-16T10:21:27;17.00;99.90
18948;DHT22;9607;51.600;7.558;2022-10-16T10:23:57;17.00;99.90
18948;DHT22;9607;51.600;7.558;2022-10-16T10:26:27;17.10;99.90
18948;DHT22;9607;51.600;7.558;2022-10-16T10:29:00;17.20;99.90
18948;DHT22;9607;51.600;7.558;2022-10-16T10:31:33;17.20;99.90
18948;DHT22;9607;51.600;7.558;2022-10-16T10:34:17;17.30;99.90
18948;DHT22;9607;51.600;7.558;2022-10-16T10:36:53;17.20;99.90
18948;DHT22;9607;51.600;7.558;2022-10-16T10:39:29;17.20;99.90
18948;DHT22;9607;51.600;7.558;2022-10-16T10:42:18;17.10;99.90
18948;DHT22;9607;51.600;7.558;2022-10-16T10:45:03;17.10;99.90
18948;DHT22;9607;51.600;7.558;2022-10-16T10:47:45;17.10;99.90
18948;DHT22;9607;51.600;7.558;2022-10-16T10:50:22;17.20;99.90
18948;DHT22;9607;51.600;7.558;2022-10-16T10:52:59;17.20;99.90
18948;DHT22;9607;51.600;7.558;2022-10-16T10:55:36;17.20;99.90
18948;DHT22;9607;51.600;7.558;2022-10-16T10:58:29;17.20;99.90
18948;DHT22;9607;51.600;7.558;2022-10-16T11:01:04;17.20;99.90
18948;DHT22;9607;51.600;7.558;2022-10-16T11:03:46;17.30;99.90
18948;DHT22;9607;51.600;7.558;2022-10-16T11:06:24;17.30;99.90
18948;DHT22;9607;51.600;7.558;2022-10-16T11:08:55;17.50;99.90
18948;DHT22;9607;51.600;7.558;2022-10-16T11:11:30;17.70;99.90
18948;DHT22;9607;51.600;7.558;2022-10-16T11:14:00;17.80;99.90
18948;DHT22;9607;51.600;7.558;2022-10-16T11:16:34;17.90;99.90
18948;DHT22;9607;51.600;7.558;2022-10-16T11:19:10;17.80;99.90
18948;DHT22;9607;51.600;7.558;2022-10-16T11:21:44;17.90;99.90
18948;DHT22;9607;51.600;7.558;2022-10-16T11:24:20;18.00;99.90
18948;DHT22;9607;51.600;7.558;2022-10-16T11:26:50;18.10;99.90
18948;DHT22;9607;51.600;7.558;2022-10-16T11:29:22;18.20;99.90
18948;DHT22;9607;51.600;7.558;2022-10-16T11:31:55;18.20;99.90
18948;DHT22;9607;51.600;7.558;2022-10-16T11:34:27;18.20;99.90
18948;DHT22;9607;51.600;7.558;2022-10-16T11:37:02;18.20;99.90
18948;DHT22;9607;51.600;7.558;2022-10-16T11:39:31;18.20;99.90
18948;DHT22;9607;51.600;7.558;2022-10-16T11:42:02;18.10;99.90
18948;DHT22;9607;51.600;7.558;2022-10-16T11:44:41;18.10;99.90
18948;DHT22;9607;51.600;7.558;2022-10-16T11:47:20;18.10;99.90
18948;DHT22;9607;51.600;7.558;2022-10-16T11:49:55;18.10;99.90
18948;DHT22;9607;51.600;7.558;2022-10-16T11:52:30;18.10;99.90
18948;DHT22;9607;51.600;7.558;2022-10-16T11:55:02;18.10;99.90
18948;DHT22;9607;51.600;7.558;2022-10-16T11:57:33;18.10;99.90
18948;DHT22;9607;51.600;7.558;2022-10-16T12:00:05;18.20;99.90
18948;DHT22;9607;51.600;7.558;2022-10-16T12:02:49;18.20;99.90
18948;DHT22;9607;51.600;7.558;2022-10-16T12:05:28;18.40;99.90
18948;DHT22;9607;51.600;7.558;2022-10-16T12:08:08;18.70;99.90
18948;DHT22;9607;51.600;7.558;2022-10-16T12:10:37;19.00;99.90
18948;DHT22;9607;51.600;7.558;2022-10-16T12:13:04;19.00;99.90
18948;DHT22;9607;51.600;7.558;2022-10-16T12:15:33;18.90;99.90
18948;DHT22;9607;51.600;7.558;2022-10-16T12:18:00;18.80;99.90
18948;DHT22;9607;51.600;7.558;2022-10-16T12:20:30;18.80;99.90
18948;DHT22;9607;51.600;7.558;2022-10-16T12:23:00;18.70;99.90
18948;DHT22;9607;51.600;7.558;2022-10-16T12:25:31;18.60;99.90
18948;DHT22;9607;51.600;7.558;2022-10-16T12:28:03;18.50;99.90
18948;DHT22;9607;51.600;7.558;2022-10-16T12:30:32;18.50;99.90
18948;DHT22;9607;51.600;7.558;2022-10-16T12:33:01;18.50;99.90
18948;DHT22;9607;51.600;7.558;2022-10-16T12:35:32;18.50;99.90
18948;DHT22;9607;51.600;7.558;2022-10-16T12:38:16;18.50;99.90
18948;DHT22;9607;51.600;7.558;2022-10-16T12:40:46;18.40;99.90
18948;DHT22;9607;51.600;7.558;2022-10-16T12:43:34;18.50;99.90
18948;DHT22;9607;51.600;7.558;2022-10-16T12:46:04;18.50;99.90
18948;DHT22;9607;51.600;7.558;2022-10-16T12:48:45;18.60;99.90
18948;DHT22;9607;51.600;7.558;2022-10-16T12:51:22;18.60;99.90
18948;DHT22;9607;51.600;7.558;2022-10-16T12:53:58;18.60;99.90
18948;DHT22;9607;51.600;7.558;2022-10-16T12:56:36;18.60;99.90
18948;DHT22;9607;51.600;7.558;2022-10-16T12:59:11;18.60;99.90
18948;DHT22;9607;51.600;7.558;2022-10-16T13:01:56;18.80;99.90
18948;DHT22;9607;51.600;7.558;2022-10-16T13:04:35;18.90;99.90
18948;DHT22;9607;51.600;7.558;2022-10-16T13:07:17;19.10;99.90
18948;DHT22;9607;51.600;7.558;2022-10-16T13:09:55;19.20;99.90
18948;DHT22;9607;51.600;7.558;2022-10-16T13:12:40;19.20;99.90
18948;DHT22;9607;51.600;7.558;2022-10-16T13:15:31;19.20;99.90
18948;DHT22;9607;51.600;7.558;2022-10-16T13:18:10;19.20;99.90
18948;DHT22;9607;51.600;7.558;2022-10-16T13:20:51;19.20;99.90
18948;DHT22;9607;51.600;7.558;2022-10-16T13:23:24;19.10;99.90
18948;DHT22;9607;51.600;7.558;2022-10-16T13:26:04;19.10;99.90
18948;DHT22;9607;51.600;7.558;2022-10-16T13:31:15;19.00;99.90
18948;DHT22;9607;51.600;7.558;2022-10-16T13:33:47;19.00;99.90
18948;DHT22;9607;51.600;7.558;2022-10-16T13:36:20;19.00;99.90
18948;DHT22;9607;51.600;7.558;2022-10-16T13:38:48;18.90;99.90
18948;DHT22;9607;51.600;7.558;2022-10-16T13:41:17;18.90;99.90
18948;DHT22;9607;51.600;7.558;2022-10-16T13:43:48;18.90;99.90
18948;DHT22;9607;51.600;7.558;2022-10-16T13:46:18;19.00;99.90
18948;DHT22;9607;51.600;7.558;2022-10-16T13:51:21;19.20;99.90
18948;DHT22;9607;51.600;7.558;2022-10-16T13:56:25;19.20;99.90
18948;DHT22;9607;51.600;7.558;2022-10-16T13:58:59;19.20;99.90
18948;DHT22;9607;51.600;7.558;2022-10-16T14:01:30;19.20;99.90
18948;DHT22;9607;51.600;7.558;2022-10-16T14:04:03;19.20;99.90
18948;DHT22;9607;51.600;7.558;2022-10-16T14:06:32;19.30;99.90
18948;DHT22;9607;51.600;7.558;2022-10-16T14:09:03;19.30;99.90
18948;DHT22;9607;51.600;7.558;2022-10-16T14:11:32;19.20;99.90
18948;DHT22;9607;51.600;7.558;2022-10-16T14:14:00;19.20;99.90
18948;DHT22;9607;51.600;7.558;2022-10-16T14:16:30;19.10;99.90
18948;DHT22;9607;51.600;7.558;2022-10-16T14:19:00;19.10;99.90
18948;DHT22;9607;51.600;7.558;2022-10-16T14:21:28;19.00;99.90
18948;DHT22;9607;51.600;7.558;2022-10-16T14:23:55;19.00;99.90
18948;DHT22;9607;51.600;7.558;2022-10-16T14:26:24;19.00;99.90
18948;DHT22;9607;51.600;7.558;2022-10-16T14:29:10;19.10;99.90
18948;DHT22;9607;51.600;7.558;2022-10-16T14:31:39;19.30;99.90
18948;DHT22;9607;51.600;7.558;2022-10-16T14:34:22;19.40;99.90
18948;DHT22;9607;51.600;7.558;2022-10-16T14:36:50;19.60;99.90
18948;DHT22;9607;51.600;7.558;2022-10-16T14:39:19;19.70;99.90
18948;DHT22;9607;51.600;7.558;2022-10-16T14:41:48;19.80;99.90
18948;DHT22;9607;51.600;7.558;2022-10-16T14:44:17;19.80;99.90
18948;DHT22;9607;51.600;7.558;2022-10-16T14:46:46;19.80;99.90
18948;DHT22;9607;51.600;7.558;2022-10-16T14:49:16;19.60;99.90
18948;DHT22;9607;51.600;7.558;2022-10-16T14:51:45;19.40;99.90
18948;DHT22;9607;51.600;7.558;2022-10-16T14:54:14;19.30;99.90
18948;DHT22;9607;51.600;7.558;2022-10-16T14:56:46;19.10;99.90
18948;DHT22;9607;51.600;7.558;2022-10-16T14:59:16;19.00;99.90
18948;DHT22;9607;51.600;7.558;2022-10-16T15:01:45;18.90;99.90
18948;DHT22;9607;51.600;7.558;2022-10-16T15:04:13;18.90;99.90
18948;DHT22;9607;51.600;7.558;2022-10-16T15:06:40;18.90;99.90
18948;DHT22;9607;51.600;7.558;2022-10-16T15:09:07;19.00;99.90
18948;DHT22;9607;51.600;7.558;2022-10-16T15:11:35;19.10;99.90
18948;DHT22;9607;51.600;7.558;2022-10-16T15:14:02;19.20;99.90
18948;DHT22;9607;51.600;7.558;2022-10-16T15:16:30;19.50;99.90
18948;DHT22;9607;51.600;7.558;2022-10-16T15:18:59;19.70;99.90
18948;DHT22;9607;51.600;7.558;2022-10-16T15:21:27;19.80;99.90
18948;DHT22;9607;51.600;7.558;2022-10-16T15:23:55;19.80;99.90
18948;DHT22;9607;51.600;7.558;2022-10-16T15:26:23;19.70;99.90
18948;DHT22;9607;51.600;7.558;2022-10-16T15:28:50;19.60;99.90
18948;DHT22;9607;51.600;7.558;2022-10-16T15:31:17;19.50;99.90
18948;DHT22;9607;51.600;7.558;2022-10-16T15:33:44;19.30;99.90
18948;DHT22;9607;51.600;7.558;2022-10-16T15:36:23;19.20;99.90
18948;DHT22;9607;51.600;7.558;2022-10-16T15:38:50;19.00;99.90
18948;DHT22;9607;51.600;7.558;2022-10-16T15:41:18;18.90;99.90
18948;DHT22;9607;51.600;7.558;2022-10-16T15:43:47;18.70;99.90
18948;DHT22;9607;51.600;7.558;2022-10-16T15:46:15;18.60;99.90
18948;DHT22;9607;51.600;7.558;2022-10-16T15:48:43;18.50;99.90
18948;DHT22;9607;51.600;7.558;2022-10-16T15:51:10;18.50;99.90
18948;DHT22;9607;51.600;7.558;2022-10-16T15:53:38;18.40;99.90
18948;DHT22;9607;51.600;7.558;2022-10-16T15:56:07;18.30;99.90
18948;DHT22;9607;51.600;7.558;2022-10-16T15:58:35;18.30;99.90
18948;DHT22;9607;51.600;7.558;2022-10-16T16:01:03;18.20;99.90
18948;DHT22;9607;51.600;7.558;2022-10-16T16:03:30;18.10;99.90
18948;DHT22;9607;51.600;7.558;2022-10-16T16:05:58;18.10;99.90
18948;DHT22;9607;51.600;7.558;2022-10-16T16:08:30;17.90;99.90
18948;DHT22;9607;51.600;7.558;2022-10-16T16:11:02;17.80;99.90
18948;DHT22;9607;51.600;7.558;2022-10-16T16:13:29;17.80;99.90
18948;DHT22;9607;51.600;7.558;2022-10-16T16:15:56;17.70;99.90